CheckWX is a tool to help pilots better visualize weather data.  It is not intended as a substitute for an official pre-flight weather briefing.

20:26:33 UTC

NY0 METAR
Fulton County Airport
Johnstown, New York, USA
Current

32 mins ago

KNY0 191955Z AUTO 27011KT 10SM CLR 11/02 A3001 RMK AO2
Observed
Oct-19 @ 19:55 UTC
Wind
  • 270° at 11 KTS
Visibility
10 SM
Flight Rules
VFR
Cloud Levels
  • Clear skies
Temperature
11°C / 52°F
Dewpoint
C / 36°F
Humidity
54%
Altimeter
30.01" Hg
Pressure
1016.22 hPa
Previous

52 mins ago

KNY0 191935Z AUTO 25010KT 10SM CLR 11/02 A3001 RMK AO2
Observed
Oct-19 @ 19:35 UTC
Wind
  • 250° at 10 KTS
Visibility
10 SM
Flight Rules
VFR
Cloud Levels
  • Clear skies
Temperature
11°C / 52°F
Dewpoint
C / 36°F
Humidity
54%
Altimeter
30.01" Hg
Pressure
1016.22 hPa
Previous

1 hour ago

KNY0 191915Z AUTO 26008KT 10SM CLR 11/03 A3001 RMK AO2
Observed
Oct-19 @ 19:15 UTC
Wind
  • 260° at 8 KTS
Visibility
10 SM
Flight Rules
VFR
Cloud Levels
  • Clear skies
Temperature
11°C / 52°F
Dewpoint
C / 37°F
Humidity
58%
Altimeter
30.01" Hg
Pressure
1016.22 hPa